ETD1 VHHH-VTBS
Flight info
| Callsign | ETD1 |
|---|---|
| Flight time | 2h 23m |
| Altitude | 34000 |
| Route | PECAN V10 SIKOU/K0854S1040 A202 ASSAD/K0852F360 A202 VILAO/N0460F360 A202 RAMEI W42 PAKRI Y13 RUKSA EASTE1C |
| Aircraft | A321/M-SDE3FGHIRWY/LB1 |
Departure
| Time | 2026-05-05 02:48 |
|---|---|
| Airport | Hong Kong International Airport (VHHH) |
Arrival
| Time | 2026-05-05 05:12 |
|---|---|
| Airport | Suvarnabhumi Airport (VTBS) |
| Time | Latitude | Longitude | Altitude | Speed | Heading |
|---|---|---|---|---|---|
| 2026-05-05 02:15 | 22.30063 | 113.90021 | 35 ft | 0 kts | 160° |
| 2026-05-05 02:36 | 22.30064 | 113.90020 | 36 ft | 0 kts | 159° |
| 2026-05-05 02:37 | 22.30069 | 113.90018 | 36 ft | 2 kts | 159° |
| 2026-05-05 02:37 | 22.30083 | 113.90012 | 36 ft | 2 kts | 160° |
| 2026-05-05 02:38 | 22.30097 | 113.90007 | 36 ft | 2 kts | 159° |
| 2026-05-05 02:38 | 22.30111 | 113.90001 | 36 ft | 2 kts | 159° |
| 2026-05-05 02:38 | 22.30125 | 113.89996 | 36 ft | 2 kts | 159° |
| 2026-05-05 02:38 | 22.30139 | 113.89994 | 36 ft | 2 kts | 211° |
| 2026-05-05 02:39 | 22.30146 | 113.90002 | 36 ft | 1 kts | 250° |
| 2026-05-05 02:39 | 22.30148 | 113.90009 | 36 ft | 0 kts | 250° |
| 2026-05-05 02:42 | 22.30147 | 113.90004 | 36 ft | 1 kts | 250° |
| 2026-05-05 02:42 | 22.30143 | 113.89986 | 36 ft | 3 kts | 263° |
| 2026-05-05 02:42 | 22.30139 | 113.89950 | 36 ft | 5 kts | 263° |
| 2026-05-05 02:43 | 22.30113 | 113.89916 | 36 ft | 6 kts | 194° |
| 2026-05-05 02:43 | 22.30079 | 113.89926 | 36 ft | 0 kts | 157° |
| 2026-05-05 02:43 | 22.30076 | 113.89928 | 36 ft | 0 kts | 156° |
| 2026-05-05 02:43 | 22.30068 | 113.89932 | 36 ft | 1 kts | 156° |
| 2026-05-05 02:44 | 22.30055 | 113.89937 | 36 ft | 2 kts | 159° |
| 2026-05-05 02:44 | 22.30037 | 113.89944 | 36 ft | 2 kts | 161° |
| 2026-05-05 02:44 | 22.30015 | 113.89951 | 35 ft | 3 kts | 163° |
| 2026-05-05 02:44 | 22.29988 | 113.89957 | 36 ft | 4 kts | 167° |
| 2026-05-05 02:45 | 22.29957 | 113.89965 | 35 ft | 4 kts | 168° |
| 2026-05-05 02:45 | 22.29922 | 113.89975 | 35 ft | 5 kts | 162° |
| 2026-05-05 02:45 | 22.29885 | 113.89986 | 36 ft | 5 kts | 192° |
| 2026-05-05 02:45 | 22.29855 | 113.89953 | 36 ft | 7 kts | 249° |
| 2026-05-05 02:46 | 22.29837 | 113.89898 | 36 ft | 8 kts | 251° |
| 2026-05-05 02:46 | 22.29817 | 113.89835 | 36 ft | 9 kts | 251° |
| 2026-05-05 02:46 | 22.29789 | 113.89770 | 36 ft | 7 kts | 225° |
| 2026-05-05 02:46 | 22.29736 | 113.89768 | 36 ft | 8 kts | 162° |
| 2026-05-05 02:47 | 22.29680 | 113.89789 | 36 ft | 8 kts | 159° |
| 2026-05-05 02:47 | 22.29632 | 113.89812 | 36 ft | 5 kts | 134° |
| 2026-05-05 02:47 | 22.29633 | 113.89844 | 36 ft | 0 kts | 73° |
| 2026-05-05 02:47 | 22.29644 | 113.89883 | 36 ft | 27 kts | 72° |
| 2026-05-05 02:48 | 22.29790 | 113.90331 | 36 ft | 96 kts | 70° |
| 2026-05-05 02:48 | 22.30073 | 113.91206 | 36 ft | 151 kts | 71° |
| 2026-05-05 02:48 | 22.30451 | 113.92389 | 296 ft | 173 kts | 73° |
| 2026-05-05 02:48 | 22.30823 | 113.93601 | 978 ft | 172 kts | 75° |
| 2026-05-05 02:49 | 22.31168 | 113.94819 | 1446 ft | 176 kts | 75° |
| 2026-05-05 02:49 | 22.31578 | 113.96130 | 1729 ft | 190 kts | 72° |
| 2026-05-05 02:49 | 22.32035 | 113.97497 | 2036 ft | 203 kts | 72° |
| 2026-05-05 02:49 | 22.32543 | 113.98996 | 2289 ft | 221 kts | 72° |
| 2026-05-05 02:50 | 22.33046 | 114.00610 | 2617 ft | 236 kts | 74° |
| 2026-05-05 02:50 | 22.33565 | 114.02303 | 3276 ft | 237 kts | 74° |
| 2026-05-05 02:50 | 22.33743 | 114.04058 | 3852 ft | 240 kts | 103° |
| 2026-05-05 02:50 | 22.32985 | 114.05634 | 4410 ft | 243 kts | 134° |
| 2026-05-05 02:51 | 22.31754 | 114.06898 | 5013 ft | 248 kts | 141° |
| 2026-05-05 02:51 | 22.30432 | 114.08097 | 5638 ft | 253 kts | 145° |
| 2026-05-05 02:51 | 22.28828 | 114.08881 | 6274 ft | 253 kts | 173° |
| 2026-05-05 02:51 | 22.27095 | 114.08935 | 6923 ft | 254 kts | 185° |
| 2026-05-05 02:52 | 22.25325 | 114.08813 | 7600 ft | 256 kts | 187° |
| 2026-05-05 02:52 | 22.23514 | 114.08702 | 8167 ft | 264 kts | 186° |
| 2026-05-05 02:52 | 22.21620 | 114.08629 | 8507 ft | 279 kts | 184° |
| 2026-05-05 02:52 | 22.19677 | 114.08595 | 9068 ft | 285 kts | 184° |
| 2026-05-05 02:53 | 22.17662 | 114.08715 | 9660 ft | 293 kts | 169° |
| 2026-05-05 02:53 | 22.15840 | 114.09718 | 10251 ft | 304 kts | 144° |
| 2026-05-05 02:53 | 22.14459 | 114.11539 | 10581 ft | 324 kts | 122° |
| 2026-05-05 02:53 | 22.13412 | 114.13768 | 10857 ft | 340 kts | 118° |
| 2026-05-05 02:54 | 22.12380 | 114.16112 | 11179 ft | 352 kts | 118° |
| 2026-05-05 02:54 | 22.11309 | 114.18497 | 11686 ft | 357 kts | 119° |
| 2026-05-05 02:54 | 22.10197 | 114.20889 | 12228 ft | 360 kts | 120° |
| 2026-05-05 02:54 | 22.08780 | 114.23055 | 12786 ft | 353 kts | 142° |
| 2026-05-05 02:55 | 22.06710 | 114.24264 | 13601 ft | 331 kts | 172° |
| 2026-05-05 02:55 | 22.04527 | 114.24374 | 14473 ft | 309 kts | 193° |
| 2026-05-05 02:55 | 22.02536 | 114.23726 | 15248 ft | 293 kts | 211° |
| 2026-05-05 02:55 | 22.00889 | 114.22495 | 15779 ft | 287 kts | 227° |
| 2026-05-05 02:56 | 21.99689 | 114.20799 | 16220 ft | 286 kts | 244° |
| 2026-05-05 02:56 | 21.98814 | 114.18877 | 16682 ft | 288 kts | 246° |
| 2026-05-05 02:56 | 21.97944 | 114.16928 | 17138 ft | 290 kts | 246° |
| 2026-05-05 02:56 | 21.97058 | 114.14970 | 17604 ft | 292 kts | 246° |
| 2026-05-05 02:57 | 21.96152 | 114.12985 | 17944 ft | 298 kts | 246° |
| 2026-05-05 02:57 | 21.95222 | 114.10960 | 18143 ft | 309 kts | 246° |
| 2026-05-05 02:57 | 21.94259 | 114.08872 | 18390 ft | 317 kts | 246° |
| 2026-05-05 02:57 | 21.93269 | 114.06735 | 18781 ft | 320 kts | 246° |
| 2026-05-05 02:58 | 21.92264 | 114.04570 | 19217 ft | 322 kts | 246° |
| 2026-05-05 02:58 | 21.91267 | 114.02422 | 19635 ft | 323 kts | 246° |
| 2026-05-05 02:58 | 21.90264 | 114.00266 | 20048 ft | 325 kts | 246° |
| 2026-05-05 02:58 | 21.89253 | 113.98090 | 20448 ft | 327 kts | 246° |
| 2026-05-05 02:59 | 21.88294 | 113.95872 | 20830 ft | 328 kts | 249° |
| 2026-05-05 02:59 | 21.87363 | 113.93621 | 21211 ft | 330 kts | 249° |
| 2026-05-05 02:59 | 21.86426 | 113.91350 | 21588 ft | 332 kts | 249° |
| 2026-05-05 02:59 | 21.85493 | 113.89092 | 21959 ft | 334 kts | 249° |
| 2026-05-05 03:00 | 21.84545 | 113.86797 | 22332 ft | 336 kts | 249° |
| 2026-05-05 03:00 | 21.83595 | 113.84497 | 22710 ft | 337 kts | 249° |
| 2026-05-05 03:00 | 21.82644 | 113.82195 | 23076 ft | 339 kts | 249° |
| 2026-05-05 03:00 | 21.81684 | 113.79870 | 23445 ft | 341 kts | 249° |
| 2026-05-05 03:01 | 21.80729 | 113.77563 | 23801 ft | 343 kts | 249° |
| 2026-05-05 03:01 | 21.79759 | 113.75223 | 24173 ft | 344 kts | 249° |
| 2026-05-05 03:01 | 21.78782 | 113.72863 | 24537 ft | 346 kts | 249° |
| 2026-05-05 03:01 | 21.77804 | 113.70506 | 24892 ft | 347 kts | 249° |
| 2026-05-05 03:02 | 21.76817 | 113.68124 | 25166 ft | 352 kts | 249° |
| 2026-05-05 03:02 | 21.75806 | 113.65683 | 25307 ft | 359 kts | 249° |
| 2026-05-05 03:02 | 21.74780 | 113.63211 | 25442 ft | 366 kts | 249° |
| 2026-05-05 03:02 | 21.73743 | 113.60716 | 25580 ft | 373 kts | 249° |
| 2026-05-05 03:03 | 21.72676 | 113.58147 | 25708 ft | 380 kts | 249° |
| 2026-05-05 03:03 | 21.71584 | 113.55522 | 25848 ft | 386 kts | 248° |
| 2026-05-05 03:03 | 21.70489 | 113.52893 | 26083 ft | 389 kts | 248° |
| 2026-05-05 03:03 | 21.69377 | 113.50223 | 26383 ft | 390 kts | 248° |
| 2026-05-05 03:04 | 21.68273 | 113.47572 | 26672 ft | 392 kts | 248° |
| 2026-05-05 03:04 | 21.67155 | 113.44891 | 26956 ft | 393 kts | 248° |
| 2026-05-05 03:04 | 21.66040 | 113.42216 | 27248 ft | 394 kts | 248° |
| 2026-05-05 03:04 | 21.64923 | 113.39539 | 27510 ft | 396 kts | 248° |
| 2026-05-05 03:05 | 21.63800 | 113.36848 | 27763 ft | 397 kts | 248° |
| 2026-05-05 03:05 | 21.62670 | 113.34141 | 28028 ft | 399 kts | 248° |
| 2026-05-05 03:05 | 21.61532 | 113.31418 | 28297 ft | 400 kts | 248° |
| 2026-05-05 03:05 | 21.60390 | 113.28686 | 28564 ft | 402 kts | 248° |
| 2026-05-05 03:06 | 21.59248 | 113.25957 | 28826 ft | 403 kts | 248° |
| 2026-05-05 03:06 | 21.58098 | 113.23211 | 29095 ft | 405 kts | 248° |
| 2026-05-05 03:06 | 21.56945 | 113.20457 | 29345 ft | 406 kts | 248° |
| 2026-05-05 03:06 | 21.55779 | 113.17676 | 29588 ft | 408 kts | 248° |
| 2026-05-05 03:07 | 21.54622 | 113.14917 | 29846 ft | 408 kts | 248° |
| 2026-05-05 03:07 | 21.53453 | 113.12131 | 29993 ft | 411 kts | 248° |
| 2026-05-05 03:07 | 21.52279 | 113.09334 | 30006 ft | 409 kts | 248° |
| 2026-05-05 03:08 | 21.49957 | 113.03807 | 30011 ft | 409 kts | 248° |
| 2026-05-05 03:08 | 21.47619 | 112.98244 | 30006 ft | 409 kts | 248° |
| 2026-05-05 03:09 | 21.45271 | 112.92668 | 30003 ft | 410 kts | 248° |
| 2026-05-05 03:09 | 21.42927 | 112.87107 | 30173 ft | 413 kts | 249° |
| 2026-05-05 03:09 | 21.41742 | 112.84296 | 30546 ft | 411 kts | 249° |
| 2026-05-05 03:10 | 21.40575 | 112.81532 | 30923 ft | 408 kts | 249° |
| 2026-05-05 03:10 | 21.39414 | 112.78785 | 31255 ft | 407 kts | 249° |
| 2026-05-05 03:10 | 21.38244 | 112.76015 | 31561 ft | 407 kts | 249° |
| 2026-05-05 03:10 | 21.37075 | 112.73250 | 31862 ft | 407 kts | 249° |
| 2026-05-05 03:11 | 21.35920 | 112.70521 | 32168 ft | 406 kts | 249° |
| 2026-05-05 03:11 | 21.34742 | 112.67735 | 32428 ft | 407 kts | 249° |
| 2026-05-05 03:11 | 21.33572 | 112.64967 | 32527 ft | 411 kts | 249° |
| 2026-05-05 03:12 | 21.30828 | 112.59534 | 32722 ft | 422 kts | 242° |
| 2026-05-05 03:12 | 21.29263 | 112.56841 | 32825 ft | 426 kts | 242° |
| 2026-05-05 03:12 | 21.27704 | 112.54170 | 32927 ft | 429 kts | 242° |
| 2026-05-05 03:13 | 21.24520 | 112.48688 | 33121 ft | 436 kts | 242° |
| 2026-05-05 03:13 | 21.21329 | 112.43173 | 33365 ft | 439 kts | 242° |
| 2026-05-05 03:13 | 21.19722 | 112.40393 | 33556 ft | 440 kts | 242° |
| 2026-05-05 03:14 | 21.18108 | 112.37601 | 33772 ft | 439 kts | 242° |
| 2026-05-05 03:14 | 21.16512 | 112.34840 | 33977 ft | 439 kts | 242° |
| 2026-05-05 03:14 | 21.14890 | 112.32035 | 34001 ft | 442 kts | 242° |
| 2026-05-05 03:15 | 21.11662 | 112.26456 | 34010 ft | 444 kts | 242° |
| 2026-05-05 03:15 | 21.08450 | 112.20911 | 34007 ft | 445 kts | 242° |
| 2026-05-05 03:16 | 21.05179 | 112.15273 | 34004 ft | 445 kts | 242° |
| 2026-05-05 03:16 | 21.01935 | 112.09679 | 34004 ft | 445 kts | 242° |
| 2026-05-05 03:17 | 20.98662 | 112.04042 | 34002 ft | 446 kts | 241° |
| 2026-05-05 03:17 | 20.95387 | 111.98409 | 34001 ft | 446 kts | 242° |
| 2026-05-05 03:18 | 20.92642 | 111.93710 | 34000 ft | 446 kts | 241° |
| 2026-05-05 03:18 | 20.88800 | 111.87165 | 33997 ft | 447 kts | 241° |
| 2026-05-05 03:19 | 20.83844 | 111.78729 | 33991 ft | 447 kts | 241° |
| 2026-05-05 03:19 | 20.80538 | 111.73109 | 33984 ft | 448 kts | 241° |
| 2026-05-05 03:20 | 20.77241 | 111.67506 | 33985 ft | 450 kts | 241° |
| 2026-05-05 03:20 | 20.73908 | 111.61848 | 33984 ft | 448 kts | 241° |
| 2026-05-05 03:21 | 20.70645 | 111.56317 | 33985 ft | 448 kts | 241° |
| 2026-05-05 03:21 | 20.67306 | 111.50661 | 33987 ft | 448 kts | 241° |
| 2026-05-05 03:22 | 20.63996 | 111.45062 | 33990 ft | 449 kts | 241° |
| 2026-05-05 03:22 | 20.60656 | 111.39416 | 33990 ft | 449 kts | 241° |
| 2026-05-05 03:23 | 20.57327 | 111.33792 | 33992 ft | 450 kts | 241° |
| 2026-05-05 03:23 | 20.53989 | 111.28159 | 33990 ft | 450 kts | 240° |
| 2026-05-05 03:24 | 20.50661 | 111.22550 | 33991 ft | 450 kts | 241° |
| 2026-05-05 03:24 | 20.47330 | 111.16942 | 33988 ft | 449 kts | 241° |
| 2026-05-05 03:25 | 20.43977 | 111.11302 | 33990 ft | 449 kts | 241° |
| 2026-05-05 03:25 | 20.40645 | 111.05701 | 33987 ft | 450 kts | 241° |
| 2026-05-05 03:26 | 20.37291 | 111.00069 | 33984 ft | 450 kts | 240° |
| 2026-05-05 03:26 | 20.33929 | 110.94431 | 33986 ft | 451 kts | 240° |
| 2026-05-05 03:27 | 20.30576 | 110.88813 | 33985 ft | 451 kts | 240° |
| 2026-05-05 03:27 | 20.27220 | 110.83194 | 33984 ft | 451 kts | 240° |
| 2026-05-05 03:28 | 20.23834 | 110.77531 | 33987 ft | 451 kts | 240° |
| 2026-05-05 03:28 | 20.20483 | 110.71931 | 33984 ft | 451 kts | 240° |
| 2026-05-05 03:29 | 20.17116 | 110.66312 | 33985 ft | 451 kts | 240° |
| 2026-05-05 03:29 | 20.13736 | 110.60677 | 33989 ft | 451 kts | 240° |
| 2026-05-05 03:30 | 20.10379 | 110.55080 | 33989 ft | 452 kts | 240° |
| 2026-05-05 03:30 | 20.06995 | 110.49447 | 33993 ft | 452 kts | 240° |
| 2026-05-05 03:31 | 20.03610 | 110.43818 | 33994 ft | 452 kts | 240° |
| 2026-05-05 03:31 | 20.00223 | 110.38191 | 33995 ft | 452 kts | 240° |
| 2026-05-05 03:32 | 19.96842 | 110.32584 | 33998 ft | 453 kts | 240° |
| 2026-05-05 03:32 | 19.93440 | 110.26944 | 33997 ft | 454 kts | 240° |
| 2026-05-05 03:33 | 19.90037 | 110.21307 | 33997 ft | 453 kts | 240° |
| 2026-05-05 03:33 | 19.86641 | 110.15687 | 33993 ft | 454 kts | 240° |
| 2026-05-05 03:34 | 19.83248 | 110.10076 | 33988 ft | 454 kts | 240° |
| 2026-05-05 03:34 | 19.79822 | 110.04416 | 33986 ft | 454 kts | 240° |
| 2026-05-05 03:35 | 19.76418 | 109.98798 | 33989 ft | 454 kts | 240° |
| 2026-05-05 03:35 | 19.73021 | 109.93198 | 33990 ft | 454 kts | 240° |
| 2026-05-05 03:36 | 19.69602 | 109.87566 | 33995 ft | 454 kts | 240° |
| 2026-05-05 03:36 | 19.66189 | 109.81950 | 33996 ft | 455 kts | 240° |
| 2026-05-05 03:37 | 19.62768 | 109.76327 | 34003 ft | 455 kts | 240° |
| 2026-05-05 03:37 | 19.59330 | 109.70679 | 34001 ft | 455 kts | 240° |
| 2026-05-05 03:38 | 19.55895 | 109.65043 | 34005 ft | 455 kts | 240° |
| 2026-05-05 03:38 | 19.52476 | 109.59437 | 34000 ft | 455 kts | 240° |
| 2026-05-05 03:39 | 19.49037 | 109.53803 | 33997 ft | 455 kts | 240° |
| 2026-05-05 03:39 | 19.45610 | 109.48195 | 33995 ft | 455 kts | 240° |
| 2026-05-05 03:40 | 19.42163 | 109.42559 | 33996 ft | 455 kts | 240° |
| 2026-05-05 03:40 | 19.38729 | 109.36948 | 34001 ft | 455 kts | 240° |
| 2026-05-05 03:41 | 19.35279 | 109.31318 | 34006 ft | 455 kts | 240° |
| 2026-05-05 03:41 | 19.31831 | 109.25697 | 34019 ft | 456 kts | 240° |
| 2026-05-05 03:42 | 19.28392 | 109.20097 | 34022 ft | 456 kts | 240° |
| 2026-05-05 03:42 | 19.24933 | 109.14467 | 34017 ft | 456 kts | 239° |
| 2026-05-05 03:43 | 19.21489 | 109.08868 | 34007 ft | 456 kts | 239° |
| 2026-05-05 03:43 | 19.18035 | 109.03256 | 33991 ft | 456 kts | 239° |
| 2026-05-05 03:44 | 19.14564 | 108.97624 | 33983 ft | 457 kts | 240° |
| 2026-05-05 03:44 | 19.11090 | 108.91988 | 33986 ft | 456 kts | 240° |
| 2026-05-05 03:45 | 19.07642 | 108.86386 | 33988 ft | 456 kts | 240° |
| 2026-05-05 03:45 | 19.04190 | 108.80780 | 33987 ft | 456 kts | 239° |
| 2026-05-05 03:46 | 19.00740 | 108.75186 | 33986 ft | 456 kts | 239° |
| 2026-05-05 03:46 | 18.97280 | 108.69580 | 33987 ft | 456 kts | 240° |
| 2026-05-05 03:47 | 18.93825 | 108.63987 | 33988 ft | 456 kts | 240° |
| 2026-05-05 03:47 | 18.90343 | 108.58354 | 33987 ft | 456 kts | 240° |
| 2026-05-05 03:48 | 18.86897 | 108.52785 | 33984 ft | 456 kts | 240° |
| 2026-05-05 03:48 | 18.83424 | 108.47176 | 33980 ft | 456 kts | 240° |
| 2026-05-05 03:49 | 18.79965 | 108.41598 | 33980 ft | 455 kts | 240° |
| 2026-05-05 03:49 | 18.76506 | 108.36022 | 33980 ft | 455 kts | 240° |
| 2026-05-05 03:50 | 18.73036 | 108.30432 | 33980 ft | 456 kts | 239° |
| 2026-05-05 03:50 | 18.69562 | 108.24844 | 33979 ft | 456 kts | 239° |
| 2026-05-05 03:51 | 18.66073 | 108.19236 | 33979 ft | 455 kts | 239° |
| 2026-05-05 03:51 | 18.62575 | 108.13701 | 33980 ft | 457 kts | 238° |
| 2026-05-05 03:52 | 18.58899 | 108.08273 | 33980 ft | 457 kts | 237° |
| 2026-05-05 03:52 | 18.55193 | 108.02813 | 33979 ft | 456 kts | 237° |
| 2026-05-05 03:53 | 18.51526 | 107.97382 | 33980 ft | 457 kts | 237° |
| 2026-05-05 03:53 | 18.47837 | 107.91914 | 33979 ft | 457 kts | 238° |
| 2026-05-05 03:54 | 18.44186 | 107.86500 | 33979 ft | 457 kts | 238° |
| 2026-05-05 03:54 | 18.40504 | 107.81045 | 33980 ft | 457 kts | 237° |
| 2026-05-05 03:55 | 18.36812 | 107.75579 | 33979 ft | 458 kts | 238° |
| 2026-05-05 03:55 | 18.34960 | 107.72839 | 34109 ft | 458 kts | 237° |
| 2026-05-05 03:55 | 18.33122 | 107.70124 | 34519 ft | 453 kts | 238° |
| 2026-05-05 03:56 | 18.31312 | 107.67453 | 34897 ft | 449 kts | 238° |
| 2026-05-05 03:56 | 18.29511 | 107.64797 | 35164 ft | 447 kts | 238° |
| 2026-05-05 03:56 | 18.27707 | 107.62136 | 35359 ft | 447 kts | 238° |
| 2026-05-05 03:56 | 18.25915 | 107.59495 | 35537 ft | 447 kts | 238° |
| 2026-05-05 03:57 | 18.24097 | 107.56815 | 35719 ft | 446 kts | 238° |
| 2026-05-05 03:57 | 18.22304 | 107.54172 | 35849 ft | 447 kts | 238° |
| 2026-05-05 03:57 | 18.18675 | 107.48826 | 35933 ft | 451 kts | 238° |
| 2026-05-05 03:58 | 18.15028 | 107.43460 | 35974 ft | 452 kts | 238° |
| 2026-05-05 03:58 | 18.11376 | 107.38091 | 35974 ft | 452 kts | 238° |
| 2026-05-05 03:59 | 18.07722 | 107.32721 | 35974 ft | 452 kts | 237° |
| 2026-05-05 03:59 | 18.04078 | 107.27374 | 35972 ft | 453 kts | 237° |
| 2026-05-05 04:00 | 18.00396 | 107.21974 | 35967 ft | 453 kts | 237° |
| 2026-05-05 04:00 | 17.96729 | 107.16604 | 35962 ft | 452 kts | 237° |
| 2026-05-05 04:01 | 17.93066 | 107.11242 | 35960 ft | 453 kts | 237° |
| 2026-05-05 04:01 | 17.89428 | 107.05917 | 35962 ft | 451 kts | 237° |
| 2026-05-05 04:02 | 17.85830 | 107.00647 | 35968 ft | 445 kts | 237° |
| 2026-05-05 04:02 | 17.82175 | 106.95338 | 35976 ft | 451 kts | 237° |
| 2026-05-05 04:03 | 17.78499 | 106.89990 | 35980 ft | 453 kts | 237° |
| 2026-05-05 04:03 | 17.74816 | 106.84625 | 35979 ft | 453 kts | 237° |
| 2026-05-05 04:04 | 17.71136 | 106.79260 | 35976 ft | 453 kts | 237° |
| 2026-05-05 04:04 | 17.67464 | 106.73910 | 35976 ft | 453 kts | 237° |
| 2026-05-05 04:05 | 17.63799 | 106.68572 | 35973 ft | 453 kts | 237° |
| 2026-05-05 04:05 | 17.60106 | 106.63206 | 35975 ft | 453 kts | 236° |
| 2026-05-05 04:06 | 17.56431 | 106.57881 | 35974 ft | 453 kts | 237° |
| 2026-05-05 04:06 | 17.52748 | 106.52543 | 35972 ft | 453 kts | 237° |
| 2026-05-05 04:07 | 17.49052 | 106.47184 | 35973 ft | 453 kts | 237° |
| 2026-05-05 04:07 | 17.45343 | 106.41808 | 35985 ft | 454 kts | 236° |
| 2026-05-05 04:08 | 17.41664 | 106.36480 | 36000 ft | 454 kts | 236° |
| 2026-05-05 04:08 | 17.37954 | 106.31111 | 36020 ft | 454 kts | 236° |
| 2026-05-05 04:09 | 17.34274 | 106.25787 | 36038 ft | 454 kts | 236° |
| 2026-05-05 04:09 | 17.30578 | 106.20441 | 36051 ft | 454 kts | 236° |
| 2026-05-05 04:10 | 17.26878 | 106.15099 | 36049 ft | 454 kts | 236° |
| 2026-05-05 04:10 | 17.23171 | 106.09768 | 36036 ft | 454 kts | 236° |
| 2026-05-05 04:11 | 17.19450 | 106.04417 | 36017 ft | 454 kts | 236° |
| 2026-05-05 04:11 | 17.15749 | 105.99091 | 35997 ft | 455 kts | 236° |
| 2026-05-05 04:12 | 17.12025 | 105.93733 | 35985 ft | 455 kts | 236° |
| 2026-05-05 04:12 | 17.08327 | 105.88416 | 35977 ft | 455 kts | 236° |
| 2026-05-05 04:13 | 17.04594 | 105.83054 | 35978 ft | 455 kts | 236° |
| 2026-05-05 04:13 | 17.00887 | 105.77734 | 35975 ft | 455 kts | 236° |
| 2026-05-05 04:14 | 16.97162 | 105.72390 | 35970 ft | 455 kts | 236° |
| 2026-05-05 04:14 | 16.93444 | 105.67059 | 35973 ft | 455 kts | 236° |
| 2026-05-05 04:15 | 16.89717 | 105.61720 | 35966 ft | 454 kts | 236° |
| 2026-05-05 04:15 | 16.86015 | 105.56421 | 35970 ft | 454 kts | 236° |
| 2026-05-05 04:16 | 16.82292 | 105.51094 | 35965 ft | 454 kts | 236° |
| 2026-05-05 04:16 | 16.78573 | 105.45776 | 35964 ft | 454 kts | 236° |
| 2026-05-05 04:17 | 16.74841 | 105.40441 | 35956 ft | 454 kts | 236° |
| 2026-05-05 04:17 | 16.71115 | 105.35124 | 35950 ft | 454 kts | 236° |
| 2026-05-05 04:18 | 16.67404 | 105.29847 | 35948 ft | 454 kts | 235° |
| 2026-05-05 04:18 | 16.63657 | 105.24516 | 35948 ft | 454 kts | 235° |
| 2026-05-05 04:19 | 16.59933 | 105.19216 | 35947 ft | 454 kts | 235° |
| 2026-05-05 04:19 | 16.56207 | 105.13915 | 35947 ft | 455 kts | 235° |
| 2026-05-05 04:20 | 16.52477 | 105.08613 | 35947 ft | 455 kts | 235° |
| 2026-05-05 04:20 | 16.48744 | 105.03308 | 35948 ft | 455 kts | 235° |
| 2026-05-05 04:21 | 16.45010 | 104.98002 | 35952 ft | 455 kts | 235° |
| 2026-05-05 04:21 | 16.41271 | 104.92696 | 35957 ft | 455 kts | 235° |
| 2026-05-05 04:22 | 16.37514 | 104.87374 | 35960 ft | 455 kts | 235° |
| 2026-05-05 04:22 | 16.33761 | 104.82070 | 35962 ft | 456 kts | 235° |
| 2026-05-05 04:23 | 16.30004 | 104.76757 | 35964 ft | 456 kts | 235° |
| 2026-05-05 04:23 | 16.26256 | 104.71458 | 35965 ft | 456 kts | 235° |
| 2026-05-05 04:24 | 16.22498 | 104.66145 | 35956 ft | 457 kts | 235° |
| 2026-05-05 04:25 | 16.16846 | 104.58157 | 35947 ft | 457 kts | 235° |
| 2026-05-05 04:25 | 16.13097 | 104.52867 | 35936 ft | 457 kts | 235° |
| 2026-05-05 04:26 | 16.09326 | 104.47562 | 35930 ft | 457 kts | 235° |
| 2026-05-05 04:26 | 16.05537 | 104.42231 | 35930 ft | 457 kts | 235° |
| 2026-05-05 04:27 | 16.01772 | 104.36929 | 35930 ft | 457 kts | 235° |
| 2026-05-05 04:27 | 15.97997 | 104.31614 | 35930 ft | 457 kts | 234° |
| 2026-05-05 04:28 | 15.94216 | 104.26300 | 35930 ft | 458 kts | 234° |
| 2026-05-05 04:28 | 15.90438 | 104.21007 | 35930 ft | 458 kts | 234° |
| 2026-05-05 04:29 | 15.86639 | 104.15678 | 35925 ft | 458 kts | 234° |
| 2026-05-05 04:29 | 15.82870 | 104.10392 | 35925 ft | 458 kts | 234° |
| 2026-05-05 04:30 | 15.79061 | 104.05052 | 35925 ft | 458 kts | 234° |
| 2026-05-05 04:30 | 15.75282 | 103.99757 | 35924 ft | 457 kts | 234° |
| 2026-05-05 04:31 | 15.71502 | 103.94465 | 35926 ft | 457 kts | 234° |
| 2026-05-05 04:31 | 15.67726 | 103.89178 | 35926 ft | 457 kts | 234° |
| 2026-05-05 04:32 | 15.63941 | 103.83886 | 35928 ft | 458 kts | 234° |
| 2026-05-05 04:32 | 15.60122 | 103.78550 | 35929 ft | 458 kts | 234° |
| 2026-05-05 04:33 | 15.56342 | 103.73272 | 35930 ft | 458 kts | 234° |
| 2026-05-05 04:33 | 15.52544 | 103.67970 | 35927 ft | 458 kts | 234° |
| 2026-05-05 04:34 | 15.48756 | 103.62688 | 35926 ft | 457 kts | 234° |
| 2026-05-05 04:34 | 15.44974 | 103.57418 | 35925 ft | 457 kts | 234° |
| 2026-05-05 04:35 | 15.41236 | 103.52212 | 35928 ft | 457 kts | 234° |
| 2026-05-05 04:35 | 15.37426 | 103.46909 | 35936 ft | 457 kts | 234° |
| 2026-05-05 04:36 | 15.33633 | 103.41634 | 35939 ft | 457 kts | 234° |
| 2026-05-05 04:36 | 15.29855 | 103.36382 | 35943 ft | 457 kts | 234° |
| 2026-05-05 04:37 | 15.26067 | 103.31119 | 35948 ft | 457 kts | 234° |
| 2026-05-05 04:37 | 15.22254 | 103.25824 | 35951 ft | 457 kts | 234° |
| 2026-05-05 04:38 | 15.18471 | 103.20573 | 35952 ft | 456 kts | 234° |
| 2026-05-05 04:38 | 15.14660 | 103.15285 | 35950 ft | 457 kts | 234° |
| 2026-05-05 04:39 | 15.10876 | 103.10043 | 35948 ft | 457 kts | 233° |
| 2026-05-05 04:39 | 15.06761 | 103.05042 | 35943 ft | 458 kts | 227° |
| 2026-05-05 04:40 | 15.02076 | 103.00521 | 35938 ft | 459 kts | 220° |
| 2026-05-05 04:40 | 14.96935 | 102.96596 | 35932 ft | 460 kts | 215° |
| 2026-05-05 04:41 | 14.91825 | 102.92670 | 35926 ft | 459 kts | 223° |
| 2026-05-05 04:41 | 14.87534 | 102.87821 | 35917 ft | 457 kts | 234° |
| 2026-05-05 04:42 | 14.84370 | 102.82147 | 35916 ft | 456 kts | 246° |
| 2026-05-05 04:42 | 14.82277 | 102.75980 | 35920 ft | 456 kts | 252° |
| 2026-05-05 04:43 | 14.80382 | 102.69741 | 35919 ft | 456 kts | 252° |
| 2026-05-05 04:43 | 14.78492 | 102.63540 | 35918 ft | 456 kts | 252° |
| 2026-05-05 04:44 | 14.76577 | 102.57294 | 35915 ft | 450 kts | 252° |
| 2026-05-05 04:44 | 14.75642 | 102.54253 | 35921 ft | 439 kts | 252° |
| 2026-05-05 04:44 | 14.74723 | 102.51262 | 35924 ft | 437 kts | 252° |
| 2026-05-05 04:45 | 14.72895 | 102.45323 | 35930 ft | 436 kts | 252° |
| 2026-05-05 04:45 | 14.71054 | 102.39353 | 35932 ft | 436 kts | 252° |
| 2026-05-05 04:46 | 14.69214 | 102.33392 | 35939 ft | 436 kts | 252° |
| 2026-05-05 04:46 | 14.67375 | 102.27441 | 35938 ft | 436 kts | 252° |
| 2026-05-05 04:47 | 14.65537 | 102.21497 | 35710 ft | 437 kts | 252° |
| 2026-05-05 04:47 | 14.64618 | 102.18527 | 35164 ft | 434 kts | 252° |
| 2026-05-05 04:47 | 14.63709 | 102.15591 | 34525 ft | 432 kts | 252° |
| 2026-05-05 04:47 | 14.62791 | 102.12626 | 33857 ft | 431 kts | 252° |
| 2026-05-05 04:48 | 14.61879 | 102.09682 | 33185 ft | 430 kts | 252° |
| 2026-05-05 04:48 | 14.60972 | 102.06755 | 32510 ft | 429 kts | 252° |
| 2026-05-05 04:48 | 14.60067 | 102.03838 | 31863 ft | 429 kts | 252° |
| 2026-05-05 04:48 | 14.59166 | 102.00931 | 31168 ft | 431 kts | 252° |
| 2026-05-05 04:49 | 14.58243 | 101.97961 | 30433 ft | 433 kts | 253° |
| 2026-05-05 04:49 | 14.57331 | 101.95025 | 29687 ft | 436 kts | 253° |
| 2026-05-05 04:49 | 14.56355 | 101.92060 | 29068 ft | 434 kts | 250° |
| 2026-05-05 04:49 | 14.55260 | 101.89194 | 28569 ft | 431 kts | 249° |
| 2026-05-05 04:50 | 14.54126 | 101.86351 | 28084 ft | 427 kts | 249° |
| 2026-05-05 04:50 | 14.52998 | 101.83535 | 27600 ft | 423 kts | 248° |
| 2026-05-05 04:50 | 14.51891 | 101.80774 | 27125 ft | 420 kts | 248° |
| 2026-05-05 04:50 | 14.50776 | 101.77994 | 26646 ft | 416 kts | 248° |
| 2026-05-05 04:51 | 14.49679 | 101.75258 | 26164 ft | 413 kts | 248° |
| 2026-05-05 04:51 | 14.48582 | 101.72521 | 25681 ft | 409 kts | 248° |
| 2026-05-05 04:51 | 14.47502 | 101.69825 | 25208 ft | 406 kts | 248° |
| 2026-05-05 04:51 | 14.46441 | 101.67178 | 24743 ft | 403 kts | 248° |
| 2026-05-05 04:52 | 14.45375 | 101.64516 | 24268 ft | 400 kts | 248° |
| 2026-05-05 04:52 | 14.44307 | 101.61854 | 23791 ft | 398 kts | 248° |
| 2026-05-05 04:52 | 14.43256 | 101.59235 | 23321 ft | 395 kts | 248° |
| 2026-05-05 04:52 | 14.42218 | 101.56651 | 22858 ft | 393 kts | 248° |
| 2026-05-05 04:53 | 14.41177 | 101.54057 | 22394 ft | 391 kts | 248° |
| 2026-05-05 04:53 | 14.40146 | 101.51492 | 21943 ft | 389 kts | 248° |
| 2026-05-05 04:53 | 14.39111 | 101.48914 | 21483 ft | 387 kts | 248° |
| 2026-05-05 04:53 | 14.38089 | 101.46371 | 21025 ft | 386 kts | 248° |
| 2026-05-05 04:54 | 14.37065 | 101.43825 | 20559 ft | 385 kts | 248° |
| 2026-05-05 04:54 | 14.36033 | 101.41255 | 20085 ft | 384 kts | 248° |
| 2026-05-05 04:54 | 14.35022 | 101.38741 | 19614 ft | 383 kts | 248° |
| 2026-05-05 04:54 | 14.33997 | 101.36196 | 19136 ft | 382 kts | 248° |
| 2026-05-05 04:55 | 14.32983 | 101.33682 | 18661 ft | 382 kts | 248° |
| 2026-05-05 04:55 | 14.31957 | 101.31160 | 18182 ft | 381 kts | 246° |
| 2026-05-05 04:55 | 14.30636 | 101.28846 | 17844 ft | 375 kts | 233° |
| 2026-05-05 04:55 | 14.28886 | 101.26854 | 17812 ft | 375 kts | 223° |
| 2026-05-05 04:56 | 14.26904 | 101.25112 | 17799 ft | 376 kts | 220° |
| 2026-05-05 04:56 | 14.24880 | 101.23408 | 17419 ft | 378 kts | 219° |
| 2026-05-05 04:56 | 14.22823 | 101.21684 | 16911 ft | 377 kts | 219° |
| 2026-05-05 04:56 | 14.20794 | 101.19971 | 16430 ft | 375 kts | 219° |
| 2026-05-05 04:57 | 14.18801 | 101.18282 | 15965 ft | 373 kts | 219° |
| 2026-05-05 04:57 | 14.16810 | 101.16589 | 15500 ft | 372 kts | 219° |
| 2026-05-05 04:57 | 14.14801 | 101.14879 | 15036 ft | 369 kts | 219° |
| 2026-05-05 04:57 | 14.12839 | 101.13206 | 14590 ft | 367 kts | 219° |
| 2026-05-05 04:58 | 14.10890 | 101.11547 | 14259 ft | 361 kts | 218° |
| 2026-05-05 04:58 | 14.08976 | 101.09920 | 14070 ft | 351 kts | 218° |
| 2026-05-05 04:58 | 14.07117 | 101.08353 | 13947 ft | 339 kts | 216° |
| 2026-05-05 04:58 | 14.05133 | 101.07135 | 13810 ft | 325 kts | 202° |
| 2026-05-05 04:59 | 14.03028 | 101.06390 | 13751 ft | 312 kts | 194° |
| 2026-05-05 04:59 | 14.00919 | 101.05814 | 13357 ft | 311 kts | 193° |
| 2026-05-05 04:59 | 13.98831 | 101.05267 | 12970 ft | 310 kts | 192° |
| 2026-05-05 04:59 | 13.96745 | 101.04712 | 12730 ft | 309 kts | 192° |
| 2026-05-05 05:00 | 13.94647 | 101.04145 | 12497 ft | 309 kts | 193° |
| 2026-05-05 05:00 | 13.92564 | 101.03577 | 12262 ft | 309 kts | 193° |
| 2026-05-05 05:00 | 13.90496 | 101.03010 | 12028 ft | 309 kts | 193° |
| 2026-05-05 05:00 | 13.88417 | 101.02440 | 11788 ft | 308 kts | 193° |
| 2026-05-05 05:01 | 13.86345 | 101.01872 | 11604 ft | 307 kts | 193° |
| 2026-05-05 05:01 | 13.84262 | 101.01256 | 11485 ft | 308 kts | 200° |
| 2026-05-05 05:01 | 13.82520 | 101.00025 | 11344 ft | 311 kts | 228° |
| 2026-05-05 05:01 | 13.81482 | 100.98064 | 11232 ft | 312 kts | 255° |
| 2026-05-05 05:02 | 13.81378 | 100.95860 | 11118 ft | 309 kts | 281° |
| 2026-05-05 05:02 | 13.81918 | 100.93784 | 11008 ft | 298 kts | 287° |
| 2026-05-05 05:02 | 13.82529 | 100.91769 | 10893 ft | 288 kts | 292° |
| 2026-05-05 05:02 | 13.83629 | 100.90114 | 10727 ft | 276 kts | 324° |
| 2026-05-05 05:03 | 13.85340 | 100.89353 | 10526 ft | 263 kts | 355° |
| 2026-05-05 05:03 | 13.87119 | 100.89501 | 10226 ft | 256 kts | 18° |
| 2026-05-05 05:03 | 13.88815 | 100.90024 | 9925 ft | 255 kts | 19° |
| 2026-05-05 05:03 | 13.90518 | 100.90543 | 9625 ft | 253 kts | 18° |
| 2026-05-05 05:04 | 13.92223 | 100.91039 | 9244 ft | 251 kts | 18° |
| 2026-05-05 05:04 | 13.93895 | 100.91511 | 8843 ft | 249 kts | 17° |
| 2026-05-05 05:04 | 13.95594 | 100.91827 | 8306 ft | 256 kts | 359° |
| 2026-05-05 05:04 | 13.97309 | 100.91305 | 7907 ft | 256 kts | 328° |
| 2026-05-05 05:05 | 13.98546 | 100.90030 | 7701 ft | 248 kts | 301° |
| 2026-05-05 05:05 | 13.99079 | 100.88375 | 7428 ft | 243 kts | 276° |
| 2026-05-05 05:05 | 13.98877 | 100.86669 | 7059 ft | 241 kts | 248° |
| 2026-05-05 05:05 | 13.98174 | 100.85136 | 6703 ft | 240 kts | 241° |
| 2026-05-05 05:06 | 13.97365 | 100.83625 | 6361 ft | 238 kts | 240° |
| 2026-05-05 05:06 | 13.96551 | 100.82148 | 6066 ft | 236 kts | 239° |
| 2026-05-05 05:06 | 13.95698 | 100.80718 | 5735 ft | 236 kts | 228° |
| 2026-05-05 05:06 | 13.94344 | 100.79855 | 5501 ft | 226 kts | 191° |
| 2026-05-05 05:07 | 13.92837 | 100.79678 | 5405 ft | 212 kts | 175° |
| 2026-05-05 05:07 | 13.91431 | 100.79932 | 5221 ft | 203 kts | 166° |
| 2026-05-05 05:07 | 13.90006 | 100.79896 | 4824 ft | 208 kts | 197° |
| 2026-05-05 05:07 | 13.88811 | 100.79075 | 4476 ft | 209 kts | 218° |
| 2026-05-05 05:08 | 13.87533 | 100.78404 | 4140 ft | 205 kts | 193° |
| 2026-05-05 05:08 | 13.86146 | 100.78108 | 3799 ft | 203 kts | 191° |
| 2026-05-05 05:08 | 13.84777 | 100.77750 | 3252 ft | 207 kts | 193° |
| 2026-05-05 05:08 | 13.83366 | 100.77364 | 2696 ft | 210 kts | 193° |
| 2026-05-05 05:09 | 13.81978 | 100.76988 | 2346 ft | 204 kts | 193° |
| 2026-05-05 05:09 | 13.80626 | 100.76628 | 2075 ft | 194 kts | 193° |
| 2026-05-05 05:09 | 13.79350 | 100.76293 | 1849 ft | 182 kts | 193° |
| 2026-05-05 05:09 | 13.78145 | 100.75978 | 1598 ft | 170 kts | 193° |
| 2026-05-05 05:10 | 13.77051 | 100.75691 | 1374 ft | 156 kts | 193° |
| 2026-05-05 05:10 | 13.76012 | 100.75417 | 1168 ft | 151 kts | 193° |
| 2026-05-05 05:10 | 13.74996 | 100.75151 | 977 ft | 151 kts | 193° |
| 2026-05-05 05:10 | 13.73972 | 100.74888 | 773 ft | 151 kts | 193° |
| 2026-05-05 05:11 | 13.72952 | 100.74603 | 566 ft | 150 kts | 193° |
| 2026-05-05 05:11 | 13.71945 | 100.74348 | 384 ft | 149 kts | 192° |
| 2026-05-05 05:11 | 13.70927 | 100.74083 | 198 ft | 149 kts | 193° |
| 2026-05-05 05:11 | 13.69907 | 100.73817 | 41 ft | 149 kts | 194° |
| 2026-05-05 05:12 | 13.68942 | 100.73562 | 15 ft | 127 kts | 194° |
| 2026-05-05 05:12 | 13.68249 | 100.73380 | 15 ft | 77 kts | 195° |
| 2026-05-05 05:12 | 13.67987 | 100.73360 | 15 ft | 21 kts | 167° |
| 2026-05-05 05:12 | 13.67906 | 100.73382 | 15 ft | 11 kts | 164° |
| 2026-05-05 05:13 | 13.67833 | 100.73402 | 15 ft | 10 kts | 165° |
| 2026-05-05 05:13 | 13.67757 | 100.73421 | 15 ft | 11 kts | 174° |
| 2026-05-05 05:13 | 13.67674 | 100.73415 | 15 ft | 10 kts | 187° |
| 2026-05-05 05:13 | 13.67619 | 100.73404 | 15 ft | 5 kts | 185° |
| 2026-05-05 05:14 | 13.67600 | 100.73418 | 15 ft | 0 kts | 103° |
| 2026-05-05 05:14 | 13.67599 | 100.73419 | 15 ft | 1 kts | 103° |
| 2026-05-05 05:15 | 13.67590 | 100.73459 | 15 ft | 9 kts | 104° |
| 2026-05-05 05:15 | 13.67567 | 100.73549 | 15 ft | 14 kts | 105° |
| 2026-05-05 05:15 | 13.67541 | 100.73649 | 15 ft | 14 kts | 104° |
| 2026-05-05 05:15 | 13.67527 | 100.73707 | 15 ft | 3 kts | 104° |
| 2026-05-05 05:16 | 13.67530 | 100.73734 | 15 ft | 4 kts | 67° |
| 2026-05-05 05:16 | 13.67550 | 100.73762 | 15 ft | 5 kts | 34° |
| 2026-05-05 05:16 | 13.67591 | 100.73778 | 15 ft | 7 kts | 17° |
| 2026-05-05 05:16 | 13.67640 | 100.73791 | 15 ft | 7 kts | 13° |
| 2026-05-05 05:17 | 13.67690 | 100.73804 | 15 ft | 7 kts | 14° |
| 2026-05-05 05:17 | 13.67739 | 100.73817 | 15 ft | 7 kts | 14° |
| 2026-05-05 05:17 | 13.67763 | 100.73823 | 15 ft | 0 kts | 14° |
| 2026-05-05 05:17 | 13.67767 | 100.73824 | 15 ft | 0 kts | 14° |
| 2026-05-05 05:18 | 13.67772 | 100.73825 | 15 ft | 0 kts | 15° |
| 2026-05-05 05:18 | 13.67776 | 100.73827 | 15 ft | 0 kts | 15° |
| 2026-05-05 05:18 | 13.67780 | 100.73827 | 15 ft | 0 kts | 15° |
| 2026-05-05 05:18 | 13.67784 | 100.73829 | 15 ft | 0 kts | 15° |
| 2026-05-05 05:19 | 13.67788 | 100.73830 | 15 ft | 0 kts | 15° |
| 2026-05-05 05:19 | 13.67792 | 100.73831 | 15 ft | 0 kts | 15° |
| 2026-05-05 05:19 | 13.67797 | 100.73832 | 15 ft | 1 kts | 13° |
| 2026-05-05 05:19 | 13.67833 | 100.73841 | 15 ft | 9 kts | 12° |
| 2026-05-05 05:20 | 13.67889 | 100.73855 | 15 ft | 8 kts | 14° |
| 2026-05-05 05:20 | 13.67943 | 100.73869 | 15 ft | 7 kts | 15° |
| 2026-05-05 05:20 | 13.67996 | 100.73884 | 15 ft | 7 kts | 15° |
| 2026-05-05 05:20 | 13.68048 | 100.73898 | 15 ft | 7 kts | 14° |
| 2026-05-05 05:21 | 13.68099 | 100.73911 | 15 ft | 7 kts | 14° |
| 2026-05-05 05:21 | 13.68149 | 100.73924 | 15 ft | 7 kts | 14° |
| 2026-05-05 05:21 | 13.68199 | 100.73937 | 15 ft | 7 kts | 14° |
| 2026-05-05 05:21 | 13.68247 | 100.73950 | 15 ft | 7 kts | 15° |
| 2026-05-05 05:22 | 13.68295 | 100.73962 | 15 ft | 6 kts | 14° |
| 2026-05-05 05:22 | 13.68341 | 100.73975 | 15 ft | 6 kts | 15° |
| 2026-05-05 05:22 | 13.68387 | 100.73987 | 15 ft | 6 kts | 15° |
| 2026-05-05 05:22 | 13.68431 | 100.73999 | 15 ft | 6 kts | 14° |
| 2026-05-05 05:23 | 13.68473 | 100.74013 | 15 ft | 6 kts | 36° |
| 2026-05-05 05:23 | 13.68491 | 100.74052 | 15 ft | 6 kts | 91° |
| 2026-05-05 05:23 | 13.68491 | 100.74097 | 15 ft | 5 kts | 80° |
| 2026-05-05 05:23 | 13.68517 | 100.74124 | 15 ft | 5 kts | 22° |
| 2026-05-05 05:24 | 13.68554 | 100.74137 | 15 ft | 5 kts | 15° |
| 2026-05-05 05:24 | 13.68592 | 100.74144 | 15 ft | 5 kts | 8° |
| 2026-05-05 05:24 | 13.68629 | 100.74152 | 15 ft | 5 kts | 16° |
| 2026-05-05 05:24 | 13.68662 | 100.74171 | 15 ft | 6 kts | 51° |
| 2026-05-05 05:25 | 13.68671 | 100.74231 | 15 ft | 10 kts | 102° |
| 2026-05-05 05:25 | 13.68652 | 100.74303 | 15 ft | 10 kts | 105° |
| 2026-05-05 05:25 | 13.68670 | 100.74359 | 15 ft | 9 kts | 26° |
| 2026-05-05 05:25 | 13.68729 | 100.74377 | 15 ft | 8 kts | 14° |
| 2026-05-05 05:26 | 13.68788 | 100.74392 | 15 ft | 8 kts | 14° |
| 2026-05-05 05:26 | 13.68845 | 100.74407 | 15 ft | 8 kts | 15° |
| 2026-05-05 05:26 | 13.68877 | 100.74423 | 15 ft | 3 kts | 66° |
| 2026-05-05 05:26 | 13.68874 | 100.74449 | 15 ft | 3 kts | 104° |
| 2026-05-05 05:27 | 13.68867 | 100.74476 | 15 ft | 3 kts | 105° |
| 2026-05-05 05:27 | 13.68860 | 100.74501 | 15 ft | 3 kts | 105° |
| 2026-05-05 05:27 | 13.68856 | 100.74519 | 15 ft | 0 kts | 104° |